sensor_id;sensor_type;location;lat;lon;timestamp;temperature;humidity
27978;DHT22;15314;49.248;6.968;2023-02-26T00:00:23;1.20;78.40
27978;DHT22;15314;49.248;6.968;2023-02-26T00:01:29;1.20;78.50
27978;DHT22;15314;49.248;6.968;2023-02-26T00:02:30;1.20;78.30
27978;DHT22;15314;49.248;6.968;2023-02-26T00:03:30;1.20;78.30
27978;DHT22;15314;49.248;6.968;2023-02-26T00:04:31;1.20;78.20
27978;DHT22;15314;49.248;6.968;2023-02-26T00:05:31;1.20;78.30
27978;DHT22;15314;49.248;6.968;2023-02-26T00:06:34;1.20;78.90
27978;DHT22;15314;49.248;6.968;2023-02-26T00:07:34;1.20;79.10
27978;DHT22;15314;49.248;6.968;2023-02-26T00:08:35;1.20;78.90
27978;DHT22;15314;49.248;6.968;2023-02-26T00:09:36;1.20;79.30
27978;DHT22;15314;49.248;6.968;2023-02-26T00:10:36;1.20;79.20
27978;DHT22;15314;49.248;6.968;2023-02-26T00:11:37;1.10;79.60
27978;DHT22;15314;49.248;6.968;2023-02-26T00:12:38;1.10;79.80
27978;DHT22;15314;49.248;6.968;2023-02-26T00:13:41;1.10;79.80
27978;DHT22;15314;49.248;6.968;2023-02-26T00:14:42;1.10;79.40
27978;DHT22;15314;49.248;6.968;2023-02-26T00:15:43;1.10;79.30
27978;DHT22;15314;49.248;6.968;2023-02-26T00:16:51;1.10;80.30
27978;DHT22;15314;49.248;6.968;2023-02-26T00:18:04;1.00;80.60
27978;DHT22;15314;49.248;6.968;2023-02-26T00:19:07;1.00;80.60
27978;DHT22;15314;49.248;6.968;2023-02-26T00:20:10;1.00;80.30
27978;DHT22;15314;49.248;6.968;2023-02-26T00:21:16;1.00;80.20
27978;DHT22;15314;49.248;6.968;2023-02-26T00:22:17;1.00;79.90
27978;DHT22;15314;49.248;6.968;2023-02-26T00:23:18;1.00;80.00
27978;DHT22;15314;49.248;6.968;2023-02-26T00:24:19;1.00;79.80
27978;DHT22;15314;49.248;6.968;2023-02-26T00:25:19;0.90;80.10
27978;DHT22;15314;49.248;6.968;2023-02-26T00:26:21;1.00;80.10
27978;DHT22;15314;49.248;6.968;2023-02-26T00:27:22;0.90;80.20
27978;DHT22;15314;49.248;6.968;2023-02-26T00:28:23;1.00;80.20
27978;DHT22;15314;49.248;6.968;2023-02-26T00:29:24;1.00;80.90
27978;DHT22;15314;49.248;6.968;2023-02-26T00:30:25;1.00;80.50
27978;DHT22;15314;49.248;6.968;2023-02-26T00:31:26;1.00;80.40
27978;DHT22;15314;49.248;6.968;2023-02-26T00:32:28;0.90;80.80
27978;DHT22;15314;49.248;6.968;2023-02-26T00:33:29;0.90;80.80
27978;DHT22;15314;49.248;6.968;2023-02-26T00:34:30;0.90;80.90
27978;DHT22;15314;49.248;6.968;2023-02-26T00:35:32;0.90;80.60
27978;DHT22;15314;49.248;6.968;2023-02-26T00:38:11;0.90;80.60
27978;DHT22;15314;49.248;6.968;2023-02-26T00:40:47;0.90;81.70
27978;DHT22;15314;49.248;6.968;2023-02-26T00:41:48;0.80;81.80
27978;DHT22;15314;49.248;6.968;2023-02-26T00:42:49;0.80;81.50
27978;DHT22;15314;49.248;6.968;2023-02-26T00:43:50;0.80;81.50
27978;DHT22;15314;49.248;6.968;2023-02-26T00:44:51;0.90;82.50
27978;DHT22;15314;49.248;6.968;2023-02-26T00:47:27;0.70;82.10
27978;DHT22;15314;49.248;6.968;2023-02-26T00:50:16;0.70;82.60
27978;DHT22;15314;49.248;6.968;2023-02-26T00:52:11;0.70;82.10
27978;DHT22;15314;49.248;6.968;2023-02-26T00:53:10;0.70;82.00
27978;DHT22;15314;49.248;6.968;2023-02-26T00:54:22;0.70;82.00
27978;DHT22;15314;49.248;6.968;2023-02-26T00:55:23;0.70;82.70
27978;DHT22;15314;49.248;6.968;2023-02-26T00:56:24;0.70;82.20
27978;DHT22;15314;49.248;6.968;2023-02-26T00:57:24;0.70;81.90
27978;DHT22;15314;49.248;6.968;2023-02-26T00:58:25;0.70;82.20
27978;DHT22;15314;49.248;6.968;2023-02-26T00:59:25;0.70;82.20
27978;DHT22;15314;49.248;6.968;2023-02-26T01:00:26;0.70;82.30
27978;DHT22;15314;49.248;6.968;2023-02-26T01:01:27;0.70;83.00
27978;DHT22;15314;49.248;6.968;2023-02-26T01:02:28;0.60;82.10
27978;DHT22;15314;49.248;6.968;2023-02-26T01:03:31;0.60;82.20
27978;DHT22;15314;49.248;6.968;2023-02-26T01:04:32;0.70;82.50
27978;DHT22;15314;49.248;6.968;2023-02-26T01:05:33;0.70;82.80
27978;DHT22;15314;49.248;6.968;2023-02-26T01:06:35;0.70;82.30
27978;DHT22;15314;49.248;6.968;2023-02-26T01:10:21;0.60;82.80
27978;DHT22;15314;49.248;6.968;2023-02-26T01:11:22;0.60;83.40
27978;DHT22;15314;49.248;6.968;2023-02-26T01:12:23;0.60;83.20
27978;DHT22;15314;49.248;6.968;2023-02-26T01:13:24;0.60;82.50
27978;DHT22;15314;49.248;6.968;2023-02-26T01:14:24;0.60;82.40
27978;DHT22;15314;49.248;6.968;2023-02-26T01:15:25;0.70;82.40
27978;DHT22;15314;49.248;6.968;2023-02-26T01:16:27;0.60;82.30
27978;DHT22;15314;49.248;6.968;2023-02-26T01:17:39;0.60;82.50
27978;DHT22;15314;49.248;6.968;2023-02-26T01:18:44;0.70;82.20
27978;DHT22;15314;49.248;6.968;2023-02-26T01:20:01;0.70;82.90
27978;DHT22;15314;49.248;6.968;2023-02-26T01:21:07;0.60;82.80
27978;DHT22;15314;49.248;6.968;2023-02-26T01:22:17;0.70;82.40
27978;DHT22;15314;49.248;6.968;2023-02-26T01:23:23;0.70;82.80
27978;DHT22;15314;49.248;6.968;2023-02-26T01:24:24;0.60;82.90
27978;DHT22;15314;49.248;6.968;2023-02-26T01:25:41;0.60;83.50
27978;DHT22;15314;49.248;6.968;2023-02-26T01:26:43;0.60;82.80
27978;DHT22;15314;49.248;6.968;2023-02-26T01:27:44;0.60;82.50
27978;DHT22;15314;49.248;6.968;2023-02-26T01:28:45;0.60;82.80
27978;DHT22;15314;49.248;6.968;2023-02-26T01:29:46;0.70;83.40
27978;DHT22;15314;49.248;6.968;2023-02-26T01:30:47;0.60;83.00
27978;DHT22;15314;49.248;6.968;2023-02-26T01:31:58;0.60;82.80
27978;DHT22;15314;49.248;6.968;2023-02-26T01:33:24;0.60;82.80
27978;DHT22;15314;49.248;6.968;2023-02-26T01:34:34;0.70;83.50
27978;DHT22;15314;49.248;6.968;2023-02-26T01:41:32;0.60;82.80
27978;DHT22;15314;49.248;6.968;2023-02-26T01:42:37;0.60;82.50
27978;DHT22;15314;49.248;6.968;2023-02-26T01:47:23;0.50;83.00
27978;DHT22;15314;49.248;6.968;2023-02-26T01:48:36;0.60;82.80
27978;DHT22;15314;49.248;6.968;2023-02-26T01:49:37;0.60;83.20
27978;DHT22;15314;49.248;6.968;2023-02-26T01:50:38;0.60;83.10
27978;DHT22;15314;49.248;6.968;2023-02-26T01:51:51;0.60;83.50
27978;DHT22;15314;49.248;6.968;2023-02-26T01:53:18;0.60;83.30
27978;DHT22;15314;49.248;6.968;2023-02-26T01:54:22;0.60;83.70
27978;DHT22;15314;49.248;6.968;2023-02-26T01:55:25;0.60;83.90
27978;DHT22;15314;49.248;6.968;2023-02-26T01:56:26;0.50;83.80
27978;DHT22;15314;49.248;6.968;2023-02-26T01:57:27;0.50;84.10
27978;DHT22;15314;49.248;6.968;2023-02-26T01:58:31;0.50;84.20
27978;DHT22;15314;49.248;6.968;2023-02-26T01:59:35;0.50;83.90
27978;DHT22;15314;49.248;6.968;2023-02-26T02:00:36;0.50;84.10
27978;DHT22;15314;49.248;6.968;2023-02-26T02:01:37;0.50;84.30
27978;DHT22;15314;49.248;6.968;2023-02-26T02:02:38;0.50;84.10
27978;DHT22;15314;49.248;6.968;2023-02-26T02:03:40;0.40;83.70
27978;DHT22;15314;49.248;6.968;2023-02-26T02:04:42;0.40;83.50
27978;DHT22;15314;49.248;6.968;2023-02-26T02:05:48;0.40;84.10
27978;DHT22;15314;49.248;6.968;2023-02-26T02:06:52;0.40;83.70
27978;DHT22;15314;49.248;6.968;2023-02-26T02:07:53;0.50;83.60
27978;DHT22;15314;49.248;6.968;2023-02-26T02:08:53;0.50;83.50
27978;DHT22;15314;49.248;6.968;2023-02-26T02:09:54;0.50;83.30
27978;DHT22;15314;49.248;6.968;2023-02-26T02:10:55;0.60;83.10
27978;DHT22;15314;49.248;6.968;2023-02-26T02:12:12;0.50;83.00
27978;DHT22;15314;49.248;6.968;2023-02-26T02:13:24;0.50;83.40
27978;DHT22;15314;49.248;6.968;2023-02-26T02:16:26;0.40;83.90
27978;DHT22;15314;49.248;6.968;2023-02-26T02:17:33;0.40;84.50
27978;DHT22;15314;49.248;6.968;2023-02-26T02:18:51;0.40;83.90
27978;DHT22;15314;49.248;6.968;2023-02-26T02:19:58;0.50;83.50
27978;DHT22;15314;49.248;6.968;2023-02-26T02:21:29;0.50;83.50
27978;DHT22;15314;49.248;6.968;2023-02-26T02:23:01;0.40;84.00
27978;DHT22;15314;49.248;6.968;2023-02-26T02:31:10;0.50;84.10
27978;DHT22;15314;49.248;6.968;2023-02-26T02:32:18;0.50;84.10
27978;DHT22;15314;49.248;6.968;2023-02-26T02:33:20;0.50;83.70
27978;DHT22;15314;49.248;6.968;2023-02-26T02:34:32;0.50;84.20
27978;DHT22;15314;49.248;6.968;2023-02-26T02:35:43;0.50;84.00
27978;DHT22;15314;49.248;6.968;2023-02-26T02:38:03;0.50;84.10
27978;DHT22;15314;49.248;6.968;2023-02-26T02:39:12;0.50;84.20
27978;DHT22;15314;49.248;6.968;2023-02-26T02:40:23;0.50;84.30
27978;DHT22;15314;49.248;6.968;2023-02-26T02:41:48;0.40;83.80
27978;DHT22;15314;49.248;6.968;2023-02-26T02:43:54;0.40;84.10
27978;DHT22;15314;49.248;6.968;2023-02-26T02:45:07;0.40;84.30
27978;DHT22;15314;49.248;6.968;2023-02-26T02:46:21;0.50;84.20
27978;DHT22;15314;49.248;6.968;2023-02-26T02:47:23;0.50;84.00
27978;DHT22;15314;49.248;6.968;2023-02-26T02:48:52;0.50;84.10
27978;DHT22;15314;49.248;6.968;2023-02-26T02:50:04;0.40;84.10
27978;DHT22;15314;49.248;6.968;2023-02-26T02:52:38;0.50;84.10
27978;DHT22;15314;49.248;6.968;2023-02-26T02:53:49;0.50;84.50
27978;DHT22;15314;49.248;6.968;2023-02-26T02:54:56;0.40;84.50
27978;DHT22;15314;49.248;6.968;2023-02-26T02:56:05;0.40;84.40
27978;DHT22;15314;49.248;6.968;2023-02-26T02:57:08;0.40;84.60
27978;DHT22;15314;49.248;6.968;2023-02-26T02:58:13;0.40;84.00
27978;DHT22;15314;49.248;6.968;2023-02-26T02:59:41;0.40;83.70
27978;DHT22;15314;49.248;6.968;2023-02-26T03:00:49;0.40;84.00
27978;DHT22;15314;49.248;6.968;2023-02-26T03:01:58;0.40;84.20
27978;DHT22;15314;49.248;6.968;2023-02-26T03:03:25;0.50;84.00
27978;DHT22;15314;49.248;6.968;2023-02-26T03:04:27;0.60;84.40
27978;DHT22;15314;49.248;6.968;2023-02-26T03:05:27;0.50;84.10
27978;DHT22;15314;49.248;6.968;2023-02-26T03:06:28;0.50;84.00
27978;DHT22;15314;49.248;6.968;2023-02-26T03:07:35;0.50;83.90
27978;DHT22;15314;49.248;6.968;2023-02-26T03:08:40;0.40;83.80
27978;DHT22;15314;49.248;6.968;2023-02-26T03:09:41;0.50;84.10
27978;DHT22;15314;49.248;6.968;2023-02-26T03:10:42;0.50;84.40
27978;DHT22;15314;49.248;6.968;2023-02-26T03:11:43;0.50;84.40
27978;DHT22;15314;49.248;6.968;2023-02-26T03:12:44;0.50;84.20
27978;DHT22;15314;49.248;6.968;2023-02-26T03:13:45;0.50;84.70
27978;DHT22;15314;49.248;6.968;2023-02-26T03:14:46;0.50;84.90
27978;DHT22;15314;49.248;6.968;2023-02-26T03:18:35;0.60;84.20
27978;DHT22;15314;49.248;6.968;2023-02-26T03:21:07;0.60;84.40
27978;DHT22;15314;49.248;6.968;2023-02-26T03:23:49;0.60;84.80
27978;DHT22;15314;49.248;6.968;2023-02-26T03:26:05;0.60;84.60
27978;DHT22;15314;49.248;6.968;2023-02-26T03:27:33;0.60;84.30
27978;DHT22;15314;49.248;6.968;2023-02-26T03:28:44;0.60;84.30
27978;DHT22;15314;49.248;6.968;2023-02-26T03:30:04;0.60;84.60
27978;DHT22;15314;49.248;6.968;2023-02-26T03:31:18;0.60;84.80
27978;DHT22;15314;49.248;6.968;2023-02-26T03:35:06;0.60;85.20
27978;DHT22;15314;49.248;6.968;2023-02-26T03:36:21;0.60;84.90
27978;DHT22;15314;49.248;6.968;2023-02-26T03:37:32;0.60;85.10
27978;DHT22;15314;49.248;6.968;2023-02-26T03:39:55;0.60;85.00
27978;DHT22;15314;49.248;6.968;2023-02-26T03:41:04;0.60;85.10
27978;DHT22;15314;49.248;6.968;2023-02-26T03:44:02;0.60;85.20
27978;DHT22;15314;49.248;6.968;2023-02-26T03:45:13;0.70;85.30
27978;DHT22;15314;49.248;6.968;2023-02-26T03:46:21;0.60;85.50
27978;DHT22;15314;49.248;6.968;2023-02-26T03:47:24;0.60;85.80
27978;DHT22;15314;49.248;6.968;2023-02-26T03:48:26;0.50;85.90
27978;DHT22;15314;49.248;6.968;2023-02-26T03:49:33;0.50;86.00
27978;DHT22;15314;49.248;6.968;2023-02-26T03:50:45;0.50;85.90
27978;DHT22;15314;49.248;6.968;2023-02-26T03:51:47;0.50;86.20
27978;DHT22;15314;49.248;6.968;2023-02-26T03:52:49;0.50;86.00
27978;DHT22;15314;49.248;6.968;2023-02-26T03:53:59;0.60;86.00
27978;DHT22;15314;49.248;6.968;2023-02-26T03:55:29;0.60;86.10
27978;DHT22;15314;49.248;6.968;2023-02-26T03:56:42;0.60;86.20
27978;DHT22;15314;49.248;6.968;2023-02-26T03:57:44;0.60;86.60
27978;DHT22;15314;49.248;6.968;2023-02-26T03:58:45;0.70;86.30
27978;DHT22;15314;49.248;6.968;2023-02-26T03:59:46;0.60;86.50
27978;DHT22;15314;49.248;6.968;2023-02-26T04:00:49;0.60;86.30
27978;DHT22;15314;49.248;6.968;2023-02-26T04:02:02;0.50;86.30
27978;DHT22;15314;49.248;6.968;2023-02-26T04:03:19;0.50;86.60
27978;DHT22;15314;49.248;6.968;2023-02-26T04:04:27;0.40;87.00
27978;DHT22;15314;49.248;6.968;2023-02-26T04:05:40;0.40;87.10
27978;DHT22;15314;49.248;6.968;2023-02-26T04:06:42;0.40;86.80
27978;DHT22;15314;49.248;6.968;2023-02-26T04:07:44;0.20;87.60
27978;DHT22;15314;49.248;6.968;2023-02-26T04:08:46;0.40;87.30
27978;DHT22;15314;49.248;6.968;2023-02-26T04:09:49;0.40;87.40
27978;DHT22;15314;49.248;6.968;2023-02-26T04:11:56;0.30;87.90
27978;DHT22;15314;49.248;6.968;2023-02-26T04:13:01;0.40;87.80
27978;DHT22;15314;49.248;6.968;2023-02-26T04:14:02;0.40;88.20
27978;DHT22;15314;49.248;6.968;2023-02-26T04:15:02;0.30;88.00
27978;DHT22;15314;49.248;6.968;2023-02-26T04:16:04;0.30;88.50
27978;DHT22;15314;49.248;6.968;2023-02-26T04:17:05;0.30;88.70
27978;DHT22;15314;49.248;6.968;2023-02-26T04:18:06;0.30;88.60
27978;DHT22;15314;49.248;6.968;2023-02-26T04:19:07;0.20;89.00
27978;DHT22;15314;49.248;6.968;2023-02-26T04:20:08;0.20;89.10
27978;DHT22;15314;49.248;6.968;2023-02-26T04:21:12;0.20;89.20
27978;DHT22;15314;49.248;6.968;2023-02-26T04:22:13;0.20;89.90
27978;DHT22;15314;49.248;6.968;2023-02-26T04:23:14;0.30;89.50
27978;DHT22;15314;49.248;6.968;2023-02-26T04:24:14;0.20;89.40
27978;DHT22;15314;49.248;6.968;2023-02-26T04:25:15;0.30;89.70
27978;DHT22;15314;49.248;6.968;2023-02-26T04:26:15;0.20;89.50
27978;DHT22;15314;49.248;6.968;2023-02-26T04:27:16;0.30;89.60
27978;DHT22;15314;49.248;6.968;2023-02-26T04:28:17;0.30;89.40
27978;DHT22;15314;49.248;6.968;2023-02-26T04:29:17;0.40;89.60
27978;DHT22;15314;49.248;6.968;2023-02-26T04:30:18;0.30;89.90
27978;DHT22;15314;49.248;6.968;2023-02-26T04:31:19;0.20;90.00
27978;DHT22;15314;49.248;6.968;2023-02-26T04:32:19;0.20;90.00
27978;DHT22;15314;49.248;6.968;2023-02-26T04:33:20;0.20;90.20
27978;DHT22;15314;49.248;6.968;2023-02-26T04:34:21;0.10;90.40
27978;DHT22;15314;49.248;6.968;2023-02-26T04:35:21;0.20;90.50
27978;DHT22;15314;49.248;6.968;2023-02-26T04:36:22;0.10;90.50
27978;DHT22;15314;49.248;6.968;2023-02-26T04:37:22;0.20;90.60
27978;DHT22;15314;49.248;6.968;2023-02-26T04:38:23;0.10;90.70
27978;DHT22;15314;49.248;6.968;2023-02-26T04:39:23;0.20;90.70
27978;DHT22;15314;49.248;6.968;2023-02-26T04:40:24;0.20;90.80
27978;DHT22;15314;49.248;6.968;2023-02-26T04:41:25;0.10;91.00
27978;DHT22;15314;49.248;6.968;2023-02-26T04:42:26;0.20;91.20
27978;DHT22;15314;49.248;6.968;2023-02-26T04:43:26;0.10;91.20
27978;DHT22;15314;49.248;6.968;2023-02-26T04:44:27;0.10;91.20
27978;DHT22;15314;49.248;6.968;2023-02-26T04:45:28;0.10;91.30
27978;DHT22;15314;49.248;6.968;2023-02-26T04:46:28;0.10;91.30
27978;DHT22;15314;49.248;6.968;2023-02-26T04:47:29;0.10;91.40
27978;DHT22;15314;49.248;6.968;2023-02-26T04:48:29;0.00;91.50
27978;DHT22;15314;49.248;6.968;2023-02-26T04:49:30;0.10;91.70
27978;DHT22;15314;49.248;6.968;2023-02-26T04:50:30;0.10;91.80
27978;DHT22;15314;49.248;6.968;2023-02-26T04:51:31;0.10;91.90
27978;DHT22;15314;49.248;6.968;2023-02-26T04:52:32;0.10;91.90
27978;DHT22;15314;49.248;6.968;2023-02-26T04:53:32;0.10;91.90
27978;DHT22;15314;49.248;6.968;2023-02-26T04:54:33;0.10;92.00
27978;DHT22;15314;49.248;6.968;2023-02-26T04:55:34;0.10;92.00
27978;DHT22;15314;49.248;6.968;2023-02-26T04:56:35;0.10;92.10
27978;DHT22;15314;49.248;6.968;2023-02-26T04:57:36;0.10;92.20
27978;DHT22;15314;49.248;6.968;2023-02-26T04:58:36;0.10;92.10
27978;DHT22;15314;49.248;6.968;2023-02-26T04:59:37;0.10;92.20
27978;DHT22;15314;49.248;6.968;2023-02-26T05:00:38;0.10;92.30
27978;DHT22;15314;49.248;6.968;2023-02-26T05:01:39;0.10;92.30
27978;DHT22;15314;49.248;6.968;2023-02-26T05:02:40;0.10;92.50
27978;DHT22;15314;49.248;6.968;2023-02-26T05:03:40;0.00;92.40
27978;DHT22;15314;49.248;6.968;2023-02-26T05:04:41;0.00;92.50
27978;DHT22;15314;49.248;6.968;2023-02-26T05:05:42;0.00;92.70
27978;DHT22;15314;49.248;6.968;2023-02-26T05:06:43;0.00;92.70
27978;DHT22;15314;49.248;6.968;2023-02-26T05:07:44;0.00;93.00
27978;DHT22;15314;49.248;6.968;2023-02-26T05:08:44;0.00;93.10
27978;DHT22;15314;49.248;6.968;2023-02-26T05:09:45;0.00;93.00
27978;DHT22;15314;49.248;6.968;2023-02-26T05:10:46;-0.10;92.90
27978;DHT22;15314;49.248;6.968;2023-02-26T05:11:46;0.00;93.00
27978;DHT22;15314;49.248;6.968;2023-02-26T05:12:48;0.00;93.20
27978;DHT22;15314;49.248;6.968;2023-02-26T05:13:49;0.00;92.90
27978;DHT22;15314;49.248;6.968;2023-02-26T05:14:49;0.00;92.80
27978;DHT22;15314;49.248;6.968;2023-02-26T05:15:52;0.00;92.80
27978;DHT22;15314;49.248;6.968;2023-02-26T05:16:54;0.00;92.70
27978;DHT22;15314;49.248;6.968;2023-02-26T05:17:54;0.10;92.80
27978;DHT22;15314;49.248;6.968;2023-02-26T05:18:55;0.10;92.90
27978;DHT22;15314;49.248;6.968;2023-02-26T05:19:56;0.10;92.90
27978;DHT22;15314;49.248;6.968;2023-02-26T05:20:57;0.10;93.00
27978;DHT22;15314;49.248;6.968;2023-02-26T05:21:57;0.10;93.00
27978;DHT22;15314;49.248;6.968;2023-02-26T05:22:58;0.10;93.00
27978;DHT22;15314;49.248;6.968;2023-02-26T05:23:59;0.00;92.90
27978;DHT22;15314;49.248;6.968;2023-02-26T05:24:59;0.10;93.10
27978;DHT22;15314;49.248;6.968;2023-02-26T05:26:00;0.10;93.20
27978;DHT22;15314;49.248;6.968;2023-02-26T05:27:00;0.10;93.20
27978;DHT22;15314;49.248;6.968;2023-02-26T05:28:01;0.00;93.20
27978;DHT22;15314;49.248;6.968;2023-02-26T05:29:01;0.10;93.40
27978;DHT22;15314;49.248;6.968;2023-02-26T05:30:03;0.10;93.30
27978;DHT22;15314;49.248;6.968;2023-02-26T05:31:04;0.00;93.30
27978;DHT22;15314;49.248;6.968;2023-02-26T05:32:05;0.00;93.50
27978;DHT22;15314;49.248;6.968;2023-02-26T05:33:06;0.00;93.50
27978;DHT22;15314;49.248;6.968;2023-02-26T05:34:07;0.00;93.60
27978;DHT22;15314;49.248;6.968;2023-02-26T05:35:08;0.00;93.60
27978;DHT22;15314;49.248;6.968;2023-02-26T05:36:10;0.00;93.60
27978;DHT22;15314;49.248;6.968;2023-02-26T05:37:10;0.00;93.70
27978;DHT22;15314;49.248;6.968;2023-02-26T05:38:11;0.00;93.70
27978;DHT22;15314;49.248;6.968;2023-02-26T05:39:11;0.00;93.80
27978;DHT22;15314;49.248;6.968;2023-02-26T05:40:15;0.00;93.80
27978;DHT22;15314;49.248;6.968;2023-02-26T05:41:16;0.00;93.80
27978;DHT22;15314;49.248;6.968;2023-02-26T05:42:16;0.00;93.90
27978;DHT22;15314;49.248;6.968;2023-02-26T05:43:17;0.00;93.90
27978;DHT22;15314;49.248;6.968;2023-02-26T05:44:18;0.00;94.00
27978;DHT22;15314;49.248;6.968;2023-02-26T05:45:18;0.00;94.00
27978;DHT22;15314;49.248;6.968;2023-02-26T05:46:19;0.00;93.90
27978;DHT22;15314;49.248;6.968;2023-02-26T05:47:19;0.00;93.90
27978;DHT22;15314;49.248;6.968;2023-02-26T05:48:21;0.00;93.90
27978;DHT22;15314;49.248;6.968;2023-02-26T05:49:21;0.10;94.20
27978;DHT22;15314;49.248;6.968;2023-02-26T05:50:22;0.10;94.10
27978;DHT22;15314;49.248;6.968;2023-02-26T05:51:22;0.10;94.00
27978;DHT22;15314;49.248;6.968;2023-02-26T05:52:23;0.10;94.10
27978;DHT22;15314;49.248;6.968;2023-02-26T05:53:24;0.10;94.10
27978;DHT22;15314;49.248;6.968;2023-02-26T05:54:24;0.10;94.10
27978;DHT22;15314;49.248;6.968;2023-02-26T05:55:25;0.20;94.10
27978;DHT22;15314;49.248;6.968;2023-02-26T05:56:25;0.20;94.10
27978;DHT22;15314;49.248;6.968;2023-02-26T05:57:26;0.20;94.20
27978;DHT22;15314;49.248;6.968;2023-02-26T05:58:27;0.20;94.30
27978;DHT22;15314;49.248;6.968;2023-02-26T05:59:27;0.20;94.30
27978;DHT22;15314;49.248;6.968;2023-02-26T06:00:28;0.20;94.50
27978;DHT22;15314;49.248;6.968;2023-02-26T06:01:28;0.20;94.70
27978;DHT22;15314;49.248;6.968;2023-02-26T06:02:29;0.30;94.50
27978;DHT22;15314;49.248;6.968;2023-02-26T06:03:30;0.30;94.30
27978;DHT22;15314;49.248;6.968;2023-02-26T06:04:30;0.40;94.20
27978;DHT22;15314;49.248;6.968;2023-02-26T06:05:31;0.30;94.30
27978;DHT22;15314;49.248;6.968;2023-02-26T06:06:32;0.30;94.50
27978;DHT22;15314;49.248;6.968;2023-02-26T06:07:32;0.30;94.50
27978;DHT22;15314;49.248;6.968;2023-02-26T06:08:33;0.30;94.40
27978;DHT22;15314;49.248;6.968;2023-02-26T06:09:33;0.20;94.50
27978;DHT22;15314;49.248;6.968;2023-02-26T06:10:34;0.20;94.50
27978;DHT22;15314;49.248;6.968;2023-02-26T06:11:35;0.20;94.50
27978;DHT22;15314;49.248;6.968;2023-02-26T06:12:35;0.20;94.60
27978;DHT22;15314;49.248;6.968;2023-02-26T06:13:36;0.20;94.60
27978;DHT22;15314;49.248;6.968;2023-02-26T06:14:37;0.30;94.60
27978;DHT22;15314;49.248;6.968;2023-02-26T06:15:38;0.30;94.60
27978;DHT22;15314;49.248;6.968;2023-02-26T06:16:38;0.30;94.40
27978;DHT22;15314;49.248;6.968;2023-02-26T06:17:39;0.30;94.40
27978;DHT22;15314;49.248;6.968;2023-02-26T06:18:40;0.30;94.40
27978;DHT22;15314;49.248;6.968;2023-02-26T06:19:40;0.30;94.50
27978;DHT22;15314;49.248;6.968;2023-02-26T06:20:41;0.20;94.50
27978;DHT22;15314;49.248;6.968;2023-02-26T06:21:42;0.20;94.40
27978;DHT22;15314;49.248;6.968;2023-02-26T06:22:43;0.20;94.40
27978;DHT22;15314;49.248;6.968;2023-02-26T06:23:43;0.20;94.70
27978;DHT22;15314;49.248;6.968;2023-02-26T06:24:45;0.20;94.50
27978;DHT22;15314;49.248;6.968;2023-02-26T06:25:45;0.20;94.50
27978;DHT22;15314;49.248;6.968;2023-02-26T06:26:46;0.10;94.30
27978;DHT22;15314;49.248;6.968;2023-02-26T06:27:46;0.10;94.50
27978;DHT22;15314;49.248;6.968;2023-02-26T06:28:47;0.20;94.50
27978;DHT22;15314;49.248;6.968;2023-02-26T06:29:47;0.20;94.40
27978;DHT22;15314;49.248;6.968;2023-02-26T06:30:48;0.20;94.20
27978;DHT22;15314;49.248;6.968;2023-02-26T06:31:48;0.20;94.10
27978;DHT22;15314;49.248;6.968;2023-02-26T06:32:49;0.30;94.10
27978;DHT22;15314;49.248;6.968;2023-02-26T06:33:50;0.30;94.40
27978;DHT22;15314;49.248;6.968;2023-02-26T06:34:50;0.40;94.60
27978;DHT22;15314;49.248;6.968;2023-02-26T06:35:51;0.40;94.40
27978;DHT22;15314;49.248;6.968;2023-02-26T06:36:52;0.50;94.40
27978;DHT22;15314;49.248;6.968;2023-02-26T06:37:52;0.50;94.20
27978;DHT22;15314;49.248;6.968;2023-02-26T06:38:53;0.60;94.10
27978;DHT22;15314;49.248;6.968;2023-02-26T06:39:53;0.50;93.80
27978;DHT22;15314;49.248;6.968;2023-02-26T06:40:54;0.60;94.00
27978;DHT22;15314;49.248;6.968;2023-02-26T06:41:55;0.60;93.80
27978;DHT22;15314;49.248;6.968;2023-02-26T06:42:55;0.60;93.70
27978;DHT22;15314;49.248;6.968;2023-02-26T06:43:56;0.50;93.80
27978;DHT22;15314;49.248;6.968;2023-02-26T06:44:57;0.60;93.60
27978;DHT22;15314;49.248;6.968;2023-02-26T06:45:58;0.60;93.50
27978;DHT22;15314;49.248;6.968;2023-02-26T06:47:01;0.70;93.50
27978;DHT22;15314;49.248;6.968;2023-02-26T06:48:02;0.80;93.30
27978;DHT22;15314;49.248;6.968;2023-02-26T06:49:03;0.90;93.10
27978;DHT22;15314;49.248;6.968;2023-02-26T06:50:04;0.90;92.70
27978;DHT22;15314;49.248;6.968;2023-02-26T06:51:05;0.90;92.40
27978;DHT22;15314;49.248;6.968;2023-02-26T06:52:06;0.80;92.60
27978;DHT22;15314;49.248;6.968;2023-02-26T06:53:06;0.80;92.70
27978;DHT22;15314;49.248;6.968;2023-02-26T06:54:07;0.90;92.80
27978;DHT22;15314;49.248;6.968;2023-02-26T06:55:08;0.90;92.50
27978;DHT22;15314;49.248;6.968;2023-02-26T06:56:09;0.90;92.40
27978;DHT22;15314;49.248;6.968;2023-02-26T06:57:10;0.90;92.30
27978;DHT22;15314;49.248;6.968;2023-02-26T06:58:11;1.00;92.40
27978;DHT22;15314;49.248;6.968;2023-02-26T06:59:13;0.90;92.10
27978;DHT22;15314;49.248;6.968;2023-02-26T07:00:15;0.80;91.90
27978;DHT22;15314;49.248;6.968;2023-02-26T07:01:16;0.80;92.00
27978;DHT22;15314;49.248;6.968;2023-02-26T07:02:19;0.80;92.10
27978;DHT22;15314;49.248;6.968;2023-02-26T07:03:20;0.70;92.20
27978;DHT22;15314;49.248;6.968;2023-02-26T07:04:20;0.80;92.30
27978;DHT22;15314;49.248;6.968;2023-02-26T07:05:21;0.70;92.30
27978;DHT22;15314;49.248;6.968;2023-02-26T07:06:22;0.70;92.30
27978;DHT22;15314;49.248;6.968;2023-02-26T07:07:23;0.70;92.10
27978;DHT22;15314;49.248;6.968;2023-02-26T07:08:23;0.60;91.90
27978;DHT22;15314;49.248;6.968;2023-02-26T07:09:24;0.60;91.80
27978;DHT22;15314;49.248;6.968;2023-02-26T07:10:24;0.60;91.80
27978;DHT22;15314;49.248;6.968;2023-02-26T07:11:25;0.60;91.90
27978;DHT22;15314;49.248;6.968;2023-02-26T07:12:26;0.60;91.80
27978;DHT22;15314;49.248;6.968;2023-02-26T07:13:26;0.50;91.60
27978;DHT22;15314;49.248;6.968;2023-02-26T07:14:27;0.50;91.70
27978;DHT22;15314;49.248;6.968;2023-02-26T07:15:28;0.50;91.80
27978;DHT22;15314;49.248;6.968;2023-02-26T07:16:29;0.50;91.60
27978;DHT22;15314;49.248;6.968;2023-02-26T07:17:30;0.50;91.50
27978;DHT22;15314;49.248;6.968;2023-02-26T07:18:30;0.60;91.60
27978;DHT22;15314;49.248;6.968;2023-02-26T07:19:31;0.70;91.30
27978;DHT22;15314;49.248;6.968;2023-02-26T07:20:31;0.70;91.30
27978;DHT22;15314;49.248;6.968;2023-02-26T07:21:33;0.80;91.10
27978;DHT22;15314;49.248;6.968;2023-02-26T07:22:34;0.80;90.90
27978;DHT22;15314;49.248;6.968;2023-02-26T07:23:35;0.90;90.80
27978;DHT22;15314;49.248;6.968;2023-02-26T07:24:35;1.00;91.00
27978;DHT22;15314;49.248;6.968;2023-02-26T07:25:36;1.00;91.10
27978;DHT22;15314;49.248;6.968;2023-02-26T07:26:36;1.10;90.70
27978;DHT22;15314;49.248;6.968;2023-02-26T07:27:38;1.10;90.20
27978;DHT22;15314;49.248;6.968;2023-02-26T07:28:39;1.20;90.20
27978;DHT22;15314;49.248;6.968;2023-02-26T07:29:39;1.30;90.00
27978;DHT22;15314;49.248;6.968;2023-02-26T07:30:40;1.70;89.50
27978;DHT22;15314;49.248;6.968;2023-02-26T07:31:42;1.70;88.90